sensor_id;sensor_type;location;lat;lon;timestamp;pressure;altitude;pressure_sealevel;temperature;humidity
47670;BME280;33408;52.062;11.722;2023-04-30T00:00:28;101716.66;;;7.54;100.00
47670;BME280;33408;52.062;11.722;2023-04-30T00:02:55;101720.06;;;7.50;100.00
47670;BME280;33408;52.062;11.722;2023-04-30T00:05:21;101729.50;;;7.48;100.00
47670;BME280;33408;52.062;11.722;2023-04-30T00:07:48;101739.81;;;7.48;100.00
47670;BME280;33408;52.062;11.722;2023-04-30T00:10:14;101735.47;;;7.42;100.00
47670;BME280;33408;52.062;11.722;2023-04-30T00:12:41;101742.31;;;7.40;100.00
47670;BME280;33408;52.062;11.722;2023-04-30T00:15:08;101747.44;;;7.37;100.00
47670;BME280;33408;52.062;11.722;2023-04-30T00:17:37;101744.00;;;7.37;100.00
47670;BME280;33408;52.062;11.722;2023-04-30T00:20:04;101741.44;;;7.38;100.00
47670;BME280;33408;52.062;11.722;2023-04-30T00:22:31;101751.59;;;7.26;100.00
47670;BME280;33408;52.062;11.722;2023-04-30T00:24:58;101753.25;;;7.19;100.00
47670;BME280;33408;52.062;11.722;2023-04-30T00:27:25;101755.78;;;7.16;100.00
47670;BME280;33408;52.062;11.722;2023-04-30T00:29:52;101749.81;;;7.17;100.00
47670;BME280;33408;52.062;11.722;2023-04-30T00:32:19;101749.56;;;7.00;100.00
47670;BME280;33408;52.062;11.722;2023-04-30T00:34:47;101757.41;;;7.08;100.00
47670;BME280;33408;52.062;11.722;2023-04-30T00:37:13;101752.09;;;6.92;100.00
47670;BME280;33408;52.062;11.722;2023-04-30T00:39:40;101758.91;;;6.90;100.00
47670;BME280;33408;52.062;11.722;2023-04-30T00:42:06;101760.72;;;6.96;100.00
47670;BME280;33408;52.062;11.722;2023-04-30T00:44:33;101759.75;;;6.88;100.00
47670;BME280;33408;52.062;11.722;2023-04-30T00:47:00;101774.22;;;6.78;100.00
47670;BME280;33408;52.062;11.722;2023-04-30T00:49:26;101764.00;;;6.87;100.00
47670;BME280;33408;52.062;11.722;2023-04-30T00:51:54;101771.56;;;6.72;100.00
47670;BME280;33408;52.062;11.722;2023-04-30T00:54:22;101775.78;;;6.67;100.00
47670;BME280;33408;52.062;11.722;2023-04-30T00:56:49;101779.38;;;6.78;100.00
47670;BME280;33408;52.062;11.722;2023-04-30T00:59:16;101776.81;;;6.78;100.00
47670;BME280;33408;52.062;11.722;2023-04-30T01:01:43;101780.97;;;6.70;100.00
47670;BME280;33408;52.062;11.722;2023-04-30T01:04:09;101784.97;;;6.49;100.00
47670;BME280;33408;52.062;11.722;2023-04-30T01:06:37;101791.00;;;6.51;100.00
47670;BME280;33408;52.062;11.722;2023-04-30T01:09:05;101797.09;;;6.58;100.00
47670;BME280;33408;52.062;11.722;2023-04-30T01:11:43;101801.28;;;6.50;100.00
47670;BME280;33408;52.062;11.722;2023-04-30T01:14:20;101807.22;;;6.44;100.00
47670;BME280;33408;52.062;11.722;2023-04-30T01:17:01;101810.69;;;6.48;100.00
47670;BME280;33408;52.062;11.722;2023-04-30T01:19:36;101811.56;;;6.48;100.00
47670;BME280;33408;52.062;11.722;2023-04-30T01:22:04;101817.50;;;6.43;100.00
47670;BME280;33408;52.062;11.722;2023-04-30T01:24:48;101817.53;;;6.46;100.00
47670;BME280;33408;52.062;11.722;2023-04-30T01:27:31;101816.44;;;6.30;100.00
47670;BME280;33408;52.062;11.722;2023-04-30T01:30:00;101814.53;;;6.21;100.00
47670;BME280;33408;52.062;11.722;2023-04-30T01:32:28;101808.59;;;6.24;100.00
47670;BME280;33408;52.062;11.722;2023-04-30T01:34:55;101812.59;;;6.06;100.00
47670;BME280;33408;52.062;11.722;2023-04-30T01:37:29;101821.28;;;6.13;100.00
47670;BME280;33408;52.062;11.722;2023-04-30T01:40:06;101814.50;;;6.19;100.00
47670;BME280;33408;52.062;11.722;2023-04-30T01:42:41;101819.94;;;5.88;100.00
47670;BME280;33408;52.062;11.722;2023-04-30T01:45:32;101816.69;;;5.96;100.00
47670;BME280;33408;52.062;11.722;2023-04-30T01:48:07;101818.31;;;5.93;100.00
47670;BME280;33408;52.062;11.722;2023-04-30T01:50:43;101820.69;;;5.82;100.00
47670;BME280;33408;52.062;11.722;2023-04-30T01:53:17;101829.16;;;5.76;100.00
47670;BME280;33408;52.062;11.722;2023-04-30T01:55:48;101829.72;;;5.61;100.00
47670;BME280;33408;52.062;11.722;2023-04-30T01:58:16;101829.78;;;5.64;100.00
47670;BME280;33408;52.062;11.722;2023-04-30T02:00:47;101828.03;;;5.62;100.00
47670;BME280;33408;52.062;11.722;2023-04-30T02:03:13;101832.34;;;5.63;100.00
47670;BME280;33408;52.062;11.722;2023-04-30T02:05:40;101837.38;;;5.58;100.00
47670;BME280;33408;52.062;11.722;2023-04-30T02:08:07;101835.44;;;5.46;100.00
47670;BME280;33408;52.062;11.722;2023-04-30T02:10:33;101840.47;;;5.42;100.00
47670;BME280;33408;52.062;11.722;2023-04-30T02:13:00;101840.75;;;5.54;100.00
47670;BME280;33408;52.062;11.722;2023-04-30T02:15:26;101843.75;;;5.33;100.00
47670;BME280;33408;52.062;11.722;2023-04-30T02:17:54;101849.88;;;5.40;100.00
47670;BME280;33408;52.062;11.722;2023-04-30T02:20:21;101850.00;;;5.46;100.00
47670;BME280;33408;52.062;11.722;2023-04-30T02:22:47;101851.25;;;5.24;100.00
47670;BME280;33408;52.062;11.722;2023-04-30T02:25:14;101852.31;;;5.34;100.00
47670;BME280;33408;52.062;11.722;2023-04-30T02:27:40;101863.34;;;5.29;100.00
47670;BME280;33408;52.062;11.722;2023-04-30T02:30:07;101853.53;;;5.11;100.00
47670;BME280;33408;52.062;11.722;2023-04-30T02:32:34;101856.84;;;5.04;100.00
47670;BME280;33408;52.062;11.722;2023-04-30T02:35:02;101860.66;;;5.22;100.00
47670;BME280;33408;52.062;11.722;2023-04-30T02:37:29;101860.56;;;5.19;100.00
47670;BME280;33408;52.062;11.722;2023-04-30T02:39:56;101862.06;;;5.09;100.00
47670;BME280;33408;52.062;11.722;2023-04-30T02:42:22;101860.56;;;5.19;100.00
47670;BME280;33408;52.062;11.722;2023-04-30T02:44:49;101865.56;;;5.13;100.00
47670;BME280;33408;52.062;11.722;2023-04-30T02:47:15;101871.19;;;4.95;100.00
47670;BME280;33408;52.062;11.722;2023-04-30T02:49:42;101875.75;;;4.71;100.00
47670;BME280;33408;52.062;11.722;2023-04-30T02:52:10;101866.13;;;4.63;100.00
47670;BME280;33408;52.062;11.722;2023-04-30T02:54:36;101875.66;;;4.68;100.00
47670;BME280;33408;52.062;11.722;2023-04-30T02:57:03;101871.13;;;4.56;100.00
47670;BME280;33408;52.062;11.722;2023-04-30T02:59:30;101875.28;;;4.51;100.00
47670;BME280;33408;52.062;11.722;2023-04-30T03:01:56;101875.34;;;4.54;100.00
47670;BME280;33408;52.062;11.722;2023-04-30T03:04:23;101879.50;;;4.49;100.00
47670;BME280;33408;52.062;11.722;2023-04-30T03:06:50;101879.50;;;4.49;100.00
47670;BME280;33408;52.062;11.722;2023-04-30T03:09:18;101886.53;;;4.56;100.00
47670;BME280;33408;52.062;11.722;2023-04-30T03:11:44;101889.09;;;4.56;100.00
47670;BME280;33408;52.062;11.722;2023-04-30T03:14:11;101891.38;;;4.46;100.00
47670;BME280;33408;52.062;11.722;2023-04-30T03:16:37;101897.44;;;4.48;100.00
47670;BME280;33408;52.062;11.722;2023-04-30T03:19:04;101902.53;;;4.46;100.00
47670;BME280;33408;52.062;11.722;2023-04-30T03:21:30;101906.50;;;4.68;100.00
47670;BME280;33408;52.062;11.722;2023-04-30T03:23:57;101895.97;;;4.57;100.00
47670;BME280;33408;52.062;11.722;2023-04-30T03:26:25;101897.84;;;4.65;100.00
47670;BME280;33408;52.062;11.722;2023-04-30T03:28:51;101899.25;;;4.52;100.00
47670;BME280;33408;52.062;11.722;2023-04-30T03:31:19;101901.81;;;4.52;100.00
47670;BME280;33408;52.062;11.722;2023-04-30T03:33:46;101906.63;;;4.38;100.00
47670;BME280;33408;52.062;11.722;2023-04-30T03:36:13;101903.72;;;4.26;100.00
47670;BME280;33408;52.062;11.722;2023-04-30T03:38:39;101910.81;;;4.36;100.00
47670;BME280;33408;52.062;11.722;2023-04-30T03:41:07;101907.06;;;4.23;100.00
47670;BME280;33408;52.062;11.722;2023-04-30T03:43:35;101911.19;;;4.18;100.00
47670;BME280;33408;52.062;11.722;2023-04-30T03:46:01;101914.56;;;4.15;100.00
47670;BME280;33408;52.062;11.722;2023-04-30T03:48:28;101918.34;;;4.30;100.00
47670;BME280;33408;52.062;11.722;2023-04-30T03:50:55;101909.44;;;4.17;100.00
47670;BME280;33408;52.062;11.722;2023-04-30T03:53:22;101920.09;;;4.31;100.00
47670;BME280;33408;52.062;11.722;2023-04-30T03:55:50;101917.50;;;4.29;100.00
47670;BME280;33408;52.062;11.722;2023-04-30T03:58:16;101923.59;;;4.34;100.00
47670;BME280;33408;52.062;11.722;2023-04-30T04:00:44;101921.72;;;4.27;100.00
47670;BME280;33408;52.062;11.722;2023-04-30T04:03:12;101926.97;;;4.32;100.00
47670;BME280;33408;52.062;11.722;2023-04-30T04:05:39;101933.16;;;4.38;100.00
47670;BME280;33408;52.062;11.722;2023-04-30T04:08:05;101933.47;;;4.51;100.00
47670;BME280;33408;52.062;11.722;2023-04-30T04:10:32;101934.50;;;4.57;100.00
47670;BME280;33408;52.062;11.722;2023-04-30T04:13:00;101931.13;;;4.60;100.00
47670;BME280;33408;52.062;11.722;2023-04-30T04:15:26;101942.38;;;4.64;100.00
47670;BME280;33408;52.062;11.722;2023-04-30T04:17:54;101942.38;;;4.65;100.00
47670;BME280;33408;52.062;11.722;2023-04-30T04:20:21;101942.94;;;4.53;100.00
47670;BME280;33408;52.062;11.722;2023-04-30T04:22:47;101942.56;;;4.73;100.00
47670;BME280;33408;52.062;11.722;2023-04-30T04:25:14;101945.13;;;4.73;100.00
47670;BME280;33408;52.062;11.722;2023-04-30T04:27:42;101941.91;;;5.96;100.00
47670;BME280;33408;52.062;11.722;2023-04-30T04:30:10;101944.84;;;7.12;100.00
47670;BME280;33408;52.062;11.722;2023-04-30T04:32:36;101939.81;;;7.82;100.00
47670;BME280;33408;52.062;11.722;2023-04-30T04:35:12;101938.72;;;8.42;100.00
47670;BME280;33408;52.062;11.722;2023-04-30T04:37:38;101940.53;;;8.47;100.00
47670;BME280;33408;52.062;11.722;2023-04-30T04:40:06;101946.09;;;8.95;100.00
47670;BME280;33408;52.062;11.722;2023-04-30T04:42:33;101949.84;;;9.33;100.00
47670;BME280;33408;52.062;11.722;2023-04-30T04:44:59;101949.91;;;9.42;100.00
47670;BME280;33408;52.062;11.722;2023-04-30T04:47:28;101941.50;;;9.94;100.00
47670;BME280;33408;52.062;11.722;2023-04-30T04:49:54;101939.97;;;10.53;100.00
47670;BME280;33408;52.062;11.722;2023-04-30T04:52:22;101952.91;;;11.25;100.00
47670;BME280;33408;52.062;11.722;2023-04-30T04:54:49;101947.78;;;10.88;100.00
47670;BME280;33408;52.062;11.722;2023-04-30T04:57:15;101955.53;;;10.73;100.00
47670;BME280;33408;52.062;11.722;2023-04-30T04:59:42;101964.16;;;11.30;99.91
47670;BME280;33408;52.062;11.722;2023-04-30T05:02:09;101952.00;;;11.49;98.30
47670;BME280;33408;52.062;11.722;2023-04-30T05:04:35;101956.38;;;11.15;98.54
47670;BME280;33408;52.062;11.722;2023-04-30T05:07:02;101956.31;;;11.50;98.27
47670;BME280;33408;52.062;11.722;2023-04-30T05:09:30;101957.25;;;10.99;96.80
47670;BME280;33408;52.062;11.722;2023-04-30T05:11:57;101962.41;;;11.32;94.37
47670;BME280;33408;52.062;11.722;2023-04-30T05:14:23;101969.28;;;11.54;94.93
47670;BME280;33408;52.062;11.722;2023-04-30T05:16:50;101969.28;;;11.57;94.82
47670;BME280;33408;52.062;11.722;2023-04-30T05:19:17;101972.47;;;12.25;91.88
47670;BME280;33408;52.062;11.722;2023-04-30T05:21:43;101980.59;;;11.32;93.15
47670;BME280;33408;52.062;11.722;2023-04-30T05:24:11;101985.78;;;11.20;92.51
47670;BME280;33408;52.062;11.722;2023-04-30T05:26:39;101986.66;;;10.96;93.68
47670;BME280;33408;52.062;11.722;2023-04-30T05:29:05;101990.97;;;10.65;92.70
47670;BME280;33408;52.062;11.722;2023-04-30T05:31:32;101987.53;;;10.63;94.21
47670;BME280;33408;52.062;11.722;2023-04-30T05:33:59;101995.31;;;10.86;90.84
47670;BME280;33408;52.062;11.722;2023-04-30T05:36:25;101990.97;;;11.29;89.06
47670;BME280;33408;52.062;11.722;2023-04-30T05:38:52;101996.19;;;10.91;91.45
47670;BME280;33408;52.062;11.722;2023-04-30T05:41:20;101995.16;;;12.01;87.73
47670;BME280;33408;52.062;11.722;2023-04-30T05:43:48;101989.97;;;11.92;86.55
47670;BME280;33408;52.062;11.722;2023-04-30T05:46:16;101989.13;;;11.95;83.85
47670;BME280;33408;52.062;11.722;2023-04-30T05:48:42;101990.06;;;10.47;83.43
47670;BME280;33408;52.062;11.722;2023-04-30T05:51:09;101990.66;;;12.31;83.04
47670;BME280;33408;52.062;11.722;2023-04-30T05:53:36;101990.13;;;11.29;83.53
47670;BME280;33408;52.062;11.722;2023-04-30T05:56:02;101995.25;;;10.50;88.45
47670;BME280;33408;52.062;11.722;2023-04-30T05:58:29;102004.19;;;9.33;94.55
47670;BME280;33408;52.062;11.722;2023-04-30T06:00:57;102007.22;;;10.17;97.09
47670;BME280;33408;52.062;11.722;2023-04-30T06:03:24;102009.81;;;10.14;93.45
47670;BME280;33408;52.062;11.722;2023-04-30T06:05:51;102013.31;;;10.22;91.73
47670;BME280;33408;52.062;11.722;2023-04-30T06:08:17;102012.41;;;10.23;91.28
47670;BME280;33408;52.062;11.722;2023-04-30T06:10:44;102016.00;;;10.52;90.35
47670;BME280;33408;52.062;11.722;2023-04-30T06:13:10;102016.41;;;9.55;92.94
47670;BME280;33408;52.062;11.722;2023-04-30T06:15:39;102025.19;;;9.83;98.59
47670;BME280;33408;52.062;11.722;2023-04-30T06:18:09;102022.38;;;9.46;98.64
47670;BME280;33408;52.062;11.722;2023-04-30T06:20:38;102024.91;;;9.34;100.00
47670;BME280;33408;52.062;11.722;2023-04-30T06:23:04;102031.09;;;9.58;100.00
47670;BME280;33408;52.062;11.722;2023-04-30T06:25:31;102031.44;;;8.95;100.00
47670;BME280;33408;52.062;11.722;2023-04-30T06:27:58;102030.81;;;9.16;100.00
47670;BME280;33408;52.062;11.722;2023-04-30T06:30:24;102024.22;;;9.61;100.00
47670;BME280;33408;52.062;11.722;2023-04-30T06:32:51;102037.03;;;9.43;100.00
47670;BME280;33408;52.062;11.722;2023-04-30T06:35:19;102035.81;;;8.99;100.00
47670;BME280;33408;52.062;11.722;2023-04-30T06:37:45;102031.78;;;9.29;100.00
47670;BME280;33408;52.062;11.722;2023-04-30T06:40:12;102036.09;;;9.33;100.00
47670;BME280;33408;52.062;11.722;2023-04-30T06:42:39;102037.00;;;9.41;100.00
47670;BME280;33408;52.062;11.722;2023-04-30T06:45:06;102039.19;;;8.89;100.00
47670;BME280;33408;52.062;11.722;2023-04-30T06:47:34;102033.16;;;8.93;100.00
47670;BME280;33408;52.062;11.722;2023-04-30T06:50:02;102033.19;;;8.96;100.00
47670;BME280;33408;52.062;11.722;2023-04-30T06:52:30;102040.09;;;8.94;100.00
47670;BME280;33408;52.062;11.722;2023-04-30T06:54:57;102034.19;;;9.12;100.00
47670;BME280;33408;52.062;11.722;2023-04-30T06:57:23;102030.81;;;9.21;100.00
47670;BME280;33408;52.062;11.722;2023-04-30T06:59:51;102023.88;;;9.13;100.00
47670;BME280;33408;52.062;11.722;2023-04-30T07:02:18;102035.00;;;9.08;100.00
47670;BME280;33408;52.062;11.722;2023-04-30T07:04:44;102036.81;;;9.15;100.00
47670;BME280;33408;52.062;11.722;2023-04-30T07:07:11;102032.28;;;8.91;100.00
47670;BME280;33408;52.062;11.722;2023-04-30T07:09:39;102037.25;;;8.68;100.00
47670;BME280;33408;52.062;11.722;2023-04-30T07:12:06;102035.03;;;9.09;100.00
47670;BME280;33408;52.062;11.722;2023-04-30T07:14:33;102034.97;;;9.00;100.00
47670;BME280;33408;52.062;11.722;2023-04-30T07:16:59;102029.16;;;9.26;100.00
47670;BME280;33408;52.062;11.722;2023-04-30T07:19:26;102027.75;;;8.68;100.00
47670;BME280;33408;52.062;11.722;2023-04-30T07:21:52;102029.16;;;9.30;100.00
47670;BME280;33408;52.062;11.722;2023-04-30T07:24:19;102027.56;;;9.46;100.00
47670;BME280;33408;52.062;11.722;2023-04-30T07:26:47;102027.78;;;9.76;100.00
47670;BME280;33408;52.062;11.722;2023-04-30T07:29:13;102016.66;;;10.00;100.00
47670;BME280;33408;52.062;11.722;2023-04-30T07:31:43;102023.31;;;9.59;97.37
47670;BME280;33408;52.062;11.722;2023-04-30T07:34:09;102026.72;;;9.51;100.00
47670;BME280;33408;52.062;11.722;2023-04-30T07:36:37;102008.13;;;10.29;99.38
47670;BME280;33408;52.062;11.722;2023-04-30T07:39:04;102009.06;;;10.48;99.04
47670;BME280;33408;52.062;11.722;2023-04-30T07:41:32;102010.66;;;10.12;100.00
47670;BME280;33408;52.062;11.722;2023-04-30T07:44:00;102014.78;;;9.70;95.68
47670;BME280;33408;52.062;11.722;2023-04-30T07:46:26;102022.59;;;9.83;97.45
47670;BME280;33408;52.062;11.722;2023-04-30T07:48:53;102008.25;;;10.67;94.94
47670;BME280;33408;52.062;11.722;2023-04-30T07:51:19;102027.72;;;9.68;95.19
47670;BME280;33408;52.062;11.722;2023-04-30T07:53:46;102020.75;;;9.55;94.74
47670;BME280;33408;52.062;11.722;2023-04-30T07:56:12;102012.41;;;10.17;94.05
47670;BME280;33408;52.062;11.722;2023-04-30T07:58:39;102011.69;;;10.54;91.97
47670;BME280;33408;52.062;11.722;2023-04-30T08:01:08;102014.19;;;10.28;91.31
47670;BME280;33408;52.062;11.722;2023-04-30T08:03:35;102005.63;;;10.46;90.05
47670;BME280;33408;52.062;11.722;2023-04-30T08:06:02;102017.06;;;9.26;92.74
47670;BME280;33408;52.062;11.722;2023-04-30T08:08:30;102021.38;;;9.23;94.05
47670;BME280;33408;52.062;11.722;2023-04-30T08:10:56;102018.94;;;9.47;93.74
47670;BME280;33408;52.062;11.722;2023-04-30T08:13:23;102028.53;;;9.64;91.55
47670;BME280;33408;52.062;11.722;2023-04-30T08:15:58;102018.28;;;9.79;90.72
47670;BME280;33408;52.062;11.722;2023-04-30T08:18:25;102022.81;;;10.27;85.13
47670;BME280;33408;52.062;11.722;2023-04-30T08:20:52;102020.97;;;10.04;81.48
47670;BME280;33408;52.062;11.722;2023-04-30T08:23:19;102024.44;;;10.01;82.28
47670;BME280;33408;52.062;11.722;2023-04-30T08:25:45;102027.03;;;10.03;83.00
47670;BME280;33408;52.062;11.722;2023-04-30T08:28:12;102016.84;;;10.46;84.96
47670;BME280;33408;52.062;11.722;2023-04-30T08:30:38;102022.81;;;10.31;81.83
47670;BME280;33408;52.062;11.722;2023-04-30T08:33:05;102020.19;;;10.23;79.25
47670;BME280;33408;52.062;11.722;2023-04-30T08:35:33;102022.91;;;10.54;77.56
47670;BME280;33408;52.062;11.722;2023-04-30T08:38:00;102029.84;;;10.58;81.07
47670;BME280;33408;52.062;11.722;2023-04-30T08:40:27;102025.31;;;10.05;71.37
47670;BME280;33408;52.062;11.722;2023-04-30T08:43:01;102027.22;;;10.46;75.77
47670;BME280;33408;52.062;11.722;2023-04-30T08:45:30;102025.53;;;10.64;75.85
47670;BME280;33408;52.062;11.722;2023-04-30T08:47:58;102025.56;;;10.91;75.39
47670;BME280;33408;52.062;11.722;2023-04-30T08:50:25;102016.91;;;10.66;72.86
47670;BME280;33408;52.062;11.722;2023-04-30T08:52:53;102019.53;;;11.39;74.49
47670;BME280;33408;52.062;11.722;2023-04-30T08:55:20;102022.13;;;11.20;76.25
47670;BME280;33408;52.062;11.722;2023-04-30T08:57:46;102015.22;;;11.19;69.59
47670;BME280;33408;52.062;11.722;2023-04-30T09:00:13;102020.38;;;11.28;65.69
47670;BME280;33408;52.062;11.722;2023-04-30T09:02:40;102016.06;;;11.06;65.10
47670;BME280;33408;52.062;11.722;2023-04-30T09:05:09;102012.63;;;11.07;65.88
47670;BME280;33408;52.062;11.722;2023-04-30T09:07:38;102013.50;;;11.00;65.90
47670;BME280;33408;52.062;11.722;2023-04-30T09:10:13;102015.22;;;11.22;60.32
47670;BME280;33408;52.062;11.722;2023-04-30T09:12:40;102021.25;;;11.03;60.10
47670;BME280;33408;52.062;11.722;2023-04-30T09:15:11;102009.13;;;11.16;58.40
47670;BME280;33408;52.062;11.722;2023-04-30T09:17:38;102013.47;;;11.15;60.12
47670;BME280;33408;52.062;11.722;2023-04-30T09:20:09;102007.44;;;11.16;60.47
47670;BME280;33408;52.062;11.722;2023-04-30T09:22:37;102010.00;;;11.41;58.59
47670;BME280;33408;52.062;11.722;2023-04-30T09:25:05;102010.88;;;11.38;58.83
47670;BME280;33408;52.062;11.722;2023-04-30T09:27:33;102010.00;;;11.50;60.61
47670;BME280;33408;52.062;11.722;2023-04-30T09:30:00;102013.44;;;10.64;63.40
47670;BME280;33408;52.062;11.722;2023-04-30T09:32:27;102012.56;;;10.64;64.07
47670;BME280;33408;52.062;11.722;2023-04-30T09:34:54;102011.75;;;11.20;65.02
47670;BME280;33408;52.062;11.722;2023-04-30T09:37:20;102009.97;;;10.67;66.15
47670;BME280;33408;52.062;11.722;2023-04-30T09:39:48;102010.78;;;11.77;65.83
47670;BME280;33408;52.062;11.722;2023-04-30T09:42:16;102010.63;;;12.29;64.19
47670;BME280;33408;52.062;11.722;2023-04-30T09:44:45;102010.72;;;12.11;59.13
47670;BME280;33408;52.062;11.722;2023-04-30T09:47:16;102010.66;;;12.20;58.31
47670;BME280;33408;52.062;11.722;2023-04-30T09:49:45;102009.84;;;12.09;57.57
47670;BME280;33408;52.062;11.722;2023-04-30T09:52:14;101999.38;;;12.24;57.21
47670;BME280;33408;52.062;11.722;2023-04-30T09:54:42;102001.00;;;12.44;58.13
47670;BME280;33408;52.062;11.722;2023-04-30T09:57:11;101996.84;;;12.10;59.06
47670;BME280;33408;52.062;11.722;2023-04-30T09:59:42;102007.97;;;12.42;61.31
47670;BME280;33408;52.062;11.722;2023-04-30T10:02:13;102006.72;;;12.93;59.90
47670;BME280;33408;52.062;11.722;2023-04-30T10:04:41;102000.78;;;12.77;55.78
47670;BME280;33408;52.062;11.722;2023-04-30T10:07:11;102001.00;;;12.45;55.81
47670;BME280;33408;52.062;11.722;2023-04-30T10:09:40;102002.88;;;12.15;56.80
47670;BME280;33408;52.062;11.722;2023-04-30T10:12:13;102000.94;;;12.53;56.57
47670;BME280;33408;52.062;11.722;2023-04-30T10:14:45;102000.84;;;12.65;54.95
47670;BME280;33408;52.062;11.722;2023-04-30T10:17:15;101990.63;;;12.37;56.00
47670;BME280;33408;52.062;11.722;2023-04-30T10:19:45;101989.03;;;12.07;56.20
47670;BME280;33408;52.062;11.722;2023-04-30T10:22:12;101992.75;;;13.04;55.26
47670;BME280;33408;52.062;11.722;2023-04-30T10:24:40;101983.00;;;12.02;55.14
47670;BME280;33408;52.062;11.722;2023-04-30T10:27:07;101985.34;;;12.56;54.84
47670;BME280;33408;52.062;11.722;2023-04-30T10:29:34;101981.72;;;12.77;55.95
47670;BME280;33408;52.062;11.722;2023-04-30T10:32:00;101972.47;;;12.25;55.54
47670;BME280;33408;52.062;11.722;2023-04-30T10:34:37;101968.75;;;12.69;55.57
47670;BME280;33408;52.062;11.722;2023-04-30T10:37:13;101972.63;;;13.24;54.41
47670;BME280;33408;52.062;11.722;2023-04-30T10:39:45;101966.06;;;12.80;55.42
47670;BME280;33408;52.062;11.722;2023-04-30T10:42:12;101961.78;;;13.66;56.61
47670;BME280;33408;52.062;11.722;2023-04-30T10:44:39;101968.09;;;13.46;54.55
47670;BME280;33408;52.062;11.722;2023-04-30T10:47:06;101963.66;;;13.55;55.02
47670;BME280;33408;52.062;11.722;2023-04-30T10:49:34;101960.44;;;14.07;54.66
47670;BME280;33408;52.062;11.722;2023-04-30T10:52:02;101961.22;;;13.39;53.38
47670;BME280;33408;52.062;11.722;2023-04-30T10:54:34;101963.44;;;13.73;53.83
47670;BME280;33408;52.062;11.722;2023-04-30T10:57:11;101959.16;;;12.74;52.99
47670;BME280;33408;52.062;11.722;2023-04-30T10:59:41;101958.69;;;13.30;53.53
47670;BME280;33408;52.062;11.722;2023-04-30T11:02:10;101956.09;;;13.28;54.17
47670;BME280;33408;52.062;11.722;2023-04-30T11:05:10;101943.38;;;13.81;54.38
47670;BME280;33408;52.062;11.722;2023-04-30T11:07:36;101950.47;;;14.34;54.13
47670;BME280;33408;52.062;11.722;2023-04-30T11:10:06;101949.59;;;13.68;51.67
47670;BME280;33408;52.062;11.722;2023-04-30T11:12:33;101941.97;;;14.21;52.23
47670;BME280;33408;52.062;11.722;2023-04-30T11:15:04;101933.97;;;14.33;51.13
47670;BME280;33408;52.062;11.722;2023-04-30T11:17:32;101930.72;;;14.19;54.67
47670;BME280;33408;52.062;11.722;2023-04-30T11:19:59;101934.72;;;14.41;55.98
47670;BME280;33408;52.062;11.722;2023-04-30T11:22:28;101935.16;;;13.41;54.13
47670;BME280;33408;52.062;11.722;2023-04-30T11:25:05;101923.75;;;14.18;53.85
47670;BME280;33408;52.062;11.722;2023-04-30T11:27:34;101925.59;;;14.11;52.21
47670;BME280;33408;52.062;11.722;2023-04-30T11:30:10;101925.56;;;14.72;51.83
47670;BME280;33408;52.062;11.722;2023-04-30T11:32:38;101914.09;;;14.25;51.25
47670;BME280;33408;52.062;11.722;2023-04-30T11:35:06;101913.25;;;14.80;50.38
47670;BME280;33408;52.062;11.722;2023-04-30T11:37:35;101917.84;;;14.07;50.11
47670;BME280;33408;52.062;11.722;2023-04-30T11:40:07;101911.88;;;13.97;49.16
47670;BME280;33408;52.062;11.722;2023-04-30T11:42:35;101913.31;;;13.54;49.44
47670;BME280;33408;52.062;11.722;2023-04-30T11:45:05;101904.44;;;13.67;50.91
47670;BME280;33408;52.062;11.722;2023-04-30T11:47:42;101912.31;;;13.64;52.14
47670;BME280;33408;52.062;11.722;2023-04-30T11:50:10;101911.91;;;13.94;50.24
47670;BME280;33408;52.062;11.722;2023-04-30T11:52:43;101898.44;;;13.62;50.93
47670;BME280;33408;52.062;11.722;2023-04-30T11:55:16;101898.81;;;14.57;50.63
47670;BME280;33408;52.062;11.722;2023-04-30T11:57:45;101892.63;;;14.07;50.13
47670;BME280;33408;52.062;11.722;2023-04-30T12:00:14;101894.22;;;14.75;49.03
47670;BME280;33408;52.062;11.722;2023-04-30T12:02:42;101892.88;;;14.49;49.88
47670;BME280;33408;52.062;11.722;2023-04-30T12:05:13;101886.00;;;14.42;49.87
47670;BME280;33408;52.062;11.722;2023-04-30T12:07:50;101891.69;;;14.69;49.97
47670;BME280;33408;52.062;11.722;2023-04-30T12:10:18;101886.53;;;14.08;49.68
47670;BME280;33408;52.062;11.722;2023-04-30T12:12:47;101880.91;;;14.33;49.01
47670;BME280;33408;52.062;11.722;2023-04-30T12:15:15;101887.34;;;14.68;47.37
47670;BME280;33408;52.062;11.722;2023-04-30T12:17:42;101878.88;;;14.52;44.68
47670;BME280;33408;52.062;11.722;2023-04-30T12:20:10;101876.25;;;15.05;45.31
47670;BME280;33408;52.062;11.722;2023-04-30T12:22:37;101879.56;;;15.13;45.90
47670;BME280;33408;52.062;11.722;2023-04-30T12:25:08;101893.16;;;14.29;45.64
47670;BME280;33408;52.062;11.722;2023-04-30T12:27:38;101884.88;;;14.04;44.82
47670;BME280;33408;52.062;11.722;2023-04-30T12:30:07;101878.44;;;14.27;46.94
47670;BME280;33408;52.062;11.722;2023-04-30T12:32:42;101883.16;;;15.09;48.38
47670;BME280;33408;52.062;11.722;2023-04-30T12:35:12;101885.25;;;14.35;47.25
47670;BME280;33408;52.062;11.722;2023-04-30T12:37:41;101882.69;;;14.31;47.86
47670;BME280;33408;52.062;11.722;2023-04-30T12:40:11;101874.34;;;14.66;45.72
47670;BME280;33408;52.062;11.722;2023-04-30T12:42:38;101871.81;;;14.58;46.91
47670;BME280;33408;52.062;11.722;2023-04-30T12:45:06;101870.41;;;14.37;44.80